Time;durP1;ratioP1;P1;durP2;ratioP2;P2;SDS_P1;SDS_P2;PMS_P1;PMS_P2;Temp;Humidity;BMP_temperature;BMP_pressure;BME280_temperature;BME280_humidity;BME280_pressure;Samples;Min_cycle;Max_cycle;Signal;HPM_P1;HPM_P2
2023/07/05 00:01:43;;;;;;;11.38;3.03;;;15.50;99.90;;;;;;4995911;28;20045;-72
2023/07/05 00:04:09;;;;;;;10.60;2.80;;;15.50;99.90;;;;;;4994705;28;20532;-73
2023/07/05 00:06:35;;;;;;;9.73;3.03;;;15.50;99.90;;;;;;4979124;28;20389;-73
2023/07/05 00:09:01;;;;;;;12.32;3.30;;;15.40;99.90;;;;;;4995355;28;20042;-73
2023/07/05 00:11:26;;;;;;;10.27;3.10;;;15.40;99.90;;;;;;4996509;28;20056;-73
2023/07/05 00:13:52;;;;;;;11.82;4.10;;;15.30;99.90;;;;;;4997602;28;20598;-73
2023/07/05 00:16:19;;;;;;;13.75;4.53;;;15.30;99.90;;;;;;4979376;28;20104;-73
2023/07/05 00:18:44;;;;;;;10.32;4.22;;;15.30;99.90;;;;;;4996101;28;20046;-72
2023/07/05 00:21:11;;;;;;;15.13;4.50;;;15.30;99.90;;;;;;4995249;28;20034;-74
2023/07/05 00:23:38;;;;;;;12.43;4.15;;;15.30;99.90;;;;;;4995116;28;20731;-74
2023/07/05 00:26:05;;;;;;;13.25;4.43;;;15.30;99.90;;;;;;4993693;28;20112;-72
2023/07/05 00:28:34;;;;;;;9.52;3.78;;;15.30;99.90;;;;;;4995785;28;20533;-75
2023/07/05 00:31:02;;;;;;;12.73;3.65;;;15.40;1.00;;;;;;4994886;28;20482;-74
2023/07/05 00:33:28;;;;;;;12.00;3.78;;;15.40;99.90;;;;;;4996771;28;20042;-73
2023/07/05 00:35:54;;;;;;;8.50;3.83;;;15.40;99.90;;;;;;4996716;28;20096;-73
2023/07/05 00:38:21;;;;;;;14.07;4.80;;;15.40;1.00;;;;;;4996511;28;20053;-73
2023/07/05 00:40:47;;;;;;;10.90;3.90;;;15.40;1.00;;;;;;4978267;28;20465;-73
2023/07/05 00:43:14;;;;;;;12.07;4.22;;;15.30;1.00;;;;;;4995408;28;20108;-73
2023/07/05 00:46:02;;;;;;;9.27;3.80;;;15.30;1.00;;;;;;4996265;28;20068;-74
2023/07/05 00:48:56;;;;;;;10.32;3.90;;;15.30;1.00;;;;;;4994053;28;20544;-74
2023/07/05 00:51:27;;;;;;;12.63;4.50;;;15.30;1.00;;;;;;4994548;28;20132;-74
2023/07/05 00:53:58;;;;;;;8.85;3.47;;;15.20;1.00;;;;;;4977919;28;20061;-74
2023/07/05 00:56:30;;;;;;;12.82;4.47;;;15.10;1.00;;;;;;4995744;28;20050;-74
2023/07/05 00:58:56;;;;;;;10.10;4.43;;;15.10;1.00;;;;;;4994463;28;20054;-74
2023/07/05 01:01:22;;;;;;;9.68;4.20;;;15.00;1.00;;;;;;4994599;28;20038;-74
2023/07/05 01:03:52;;;;;;;10.63;3.60;;;14.90;1.00;;;;;;4994135;28;20073;-74
2023/07/05 01:06:22;;;;;;;11.10;3.85;;;14.90;36.80;;;;;;4978221;28;20144;-74
2023/07/05 01:08:49;;;;;;;9.10;3.72;;;14.80;26.10;;;;;;4994869;28;20675;-72
2023/07/05 01:11:24;;;;;;;10.57;4.13;;;14.80;99.90;;;;;;4994769;28;20045;-73
2023/07/05 01:14:04;;;;;;;11.35;4.60;;;14.80;99.90;;;;;;4977799;28;20050;-74
2023/07/05 01:16:42;;;;;;;7.85;4.07;;;14.80;99.90;;;;;;4998502;28;20125;-76
2023/07/05 01:19:22;;;;;;;9.02;3.72;;;14.70;99.90;;;;;;4998375;28;20049;-73
2023/07/05 01:21:54;;;;;;;13.05;4.28;;;14.80;99.90;;;;;;4999329;28;20042;-75
2023/07/05 01:24:54;;;;;;;7.25;3.72;;;14.90;99.90;;;;;;4999649;28;20055;-74
2023/07/05 01:27:51;;;;;;;11.73;4.25;;;14.90;99.90;;;;;;4981634;28;20042;-75
2023/07/05 01:30:48;;;;;;;10.07;4.38;;;14.90;99.90;;;;;;4997191;28;20314;-73
2023/07/05 01:33:19;;;;;;;9.20;3.95;;;14.90;99.90;;;;;;4989563;28;20093;-75
2023/07/05 01:35:49;;;;;;;8.27;3.53;;;15.00;99.90;;;;;;4998675;28;20484;-74
2023/07/05 01:38:15;;;;;;;8.27;3.85;;;14.90;99.90;;;;;;4998755;28;20509;-74
2023/07/05 01:40:44;;;;;;;12.07;5.30;;;15.00;99.90;;;;;;4998168;28;20460;-74
2023/07/05 01:43:14;;;;;;;8.60;4.22;;;15.00;99.90;;;;;;4999695;28;20453;-73
2023/07/05 01:46:04;;;;;;;11.43;4.30;;;15.00;99.90;;;;;;4997669;28;20121;-73
2023/07/05 01:48:53;;;;;;;11.52;5.00;;;15.10;99.90;;;;;;4998737;28;20761;-72
2023/07/05 01:51:40;;;;;;;13.90;5.18;;;15.10;99.90;;;;;;4981561;28;20061;-73
2023/07/05 01:54:06;;;;;;;10.73;5.28;;;15.20;58.40;;;;;;4998405;28;20074;-74
2023/07/05 01:56:40;;;;;;;11.15;4.65;;;15.20;95.40;;;;;;4998852;28;20092;-71
2023/07/05 01:59:09;;;;;;;11.45;5.82;;;15.10;99.90;;;;;;4998979;28;20525;-73
2023/07/05 02:01:36;;;;;;;12.73;5.53;;;15.10;99.90;;;;;;4998724;28;20038;-74
2023/07/05 02:04:05;;;;;;;10.23;4.78;;;15.10;32.10;;;;;;4998841;28;20096;-75
2023/07/05 02:06:32;;;;;;;10.40;5.38;;;15.10;99.90;;;;;;4998325;28;20443;-72
2023/07/05 02:08:58;;;;;;;9.55;3.80;;;15.00;99.90;;;;;;4997462;28;20208;-72
2023/07/05 02:11:24;;;;;;;13.48;4.78;;;15.10;99.90;;;;;;4998414;28;20605;-74
2023/07/05 02:13:49;;;;;;;19.27;6.75;;;15.00;99.90;;;;;;4998752;28;20596;-72
2023/07/05 02:16:15;;;;;;;12.10;5.10;;;15.00;99.90;;;;;;4996792;28;20046;-72
2023/07/05 02:18:41;;;;;;;12.00;5.03;;;14.90;99.90;;;;;;4997405;28;20477;-72
2023/07/05 02:21:10;;;;;;;12.70;4.53;;;15.00;99.90;;;;;;4998619;28;20460;-71
2023/07/05 02:23:36;;;;;;;11.48;5.30;;;15.00;99.90;;;;;;4998449;28;20101;-73
2023/07/05 02:26:07;;;;;;;13.50;6.72;;;14.90;99.90;;;;;;4997999;28;20133;-71
2023/07/05 02:28:34;;;;;;;16.42;5.88;;;14.80;99.90;;;;;;4997682;28;20381;-73
2023/07/05 02:31:11;;;;;;;21.83;7.68;;;14.80;99.90;;;;;;4997223;28;20048;-74
2023/07/05 02:33:38;;;;;;;20.88;8.05;;;14.70;99.90;;;;;;4998149;28;20081;-75
2023/07/05 02:36:09;;;;;;;22.70;8.23;;;14.60;99.90;;;;;;4981560;28;20062;-74
2023/07/05 02:38:35;;;;;;;17.23;7.28;;;14.60;99.90;;;;;;4982754;28;20133;-73
2023/07/05 02:41:01;;;;;;;20.23;7.85;;;14.80;99.90;;;;;;4999590;28;20161;-73
2023/07/05 02:43:27;;;;;;;18.75;7.90;;;14.60;99.90;;;;;;4999737;28;20050;-74
2023/07/05 02:45:52;;;;;;;24.05;8.90;;;14.60;99.90;;;;;;4999386;28;20136;-73
2023/07/05 02:48:18;;;;;;;15.77;7.45;;;14.60;99.90;;;;;;5000628;28;20041;-73
2023/07/05 02:50:43;;;;;;;10.43;6.18;;;14.60;99.90;;;;;;4999514;28;20273;-75
2023/07/05 02:53:09;;;;;;;12.90;5.45;;;14.70;99.90;;;;;;4997668;28;20053;-72
2023/07/05 02:55:35;;;;;;;18.48;8.35;;;14.80;99.90;;;;;;4999040;28;20136;-74
2023/07/05 02:58:01;;;;;;;18.38;7.32;;;14.70;99.90;;;;;;4998870;28;20414;-73
2023/07/05 03:00:29;;;;;;;12.00;6.03;;;14.90;99.90;;;;;;5000931;28;20080;-75
2023/07/05 03:02:55;;;;;;;12.02;5.63;;;14.70;99.90;;;;;;5001506;28;20038;-73
2023/07/05 03:05:21;;;;;;;17.92;9.02;;;14.80;99.90;;;;;;5001586;28;20434;-74
2023/07/05 03:07:47;;;;;;;19.20;10.10;;;14.60;99.90;;;;;;4998979;28;20046;-75
2023/07/05 03:10:12;;;;;;;15.70;8.77;;;14.80;99.90;;;;;;4999263;28;20042;-74
2023/07/05 03:12:39;;;;;;;25.55;11.85;;;14.70;99.90;;;;;;4998776;28;20095;-73
2023/07/05 03:15:05;;;;;;;18.60;9.82;;;14.60;99.90;;;;;;4997499;28;20124;-72
2023/07/05 03:17:32;;;;;;;15.48;10.60;;;14.70;99.90;;;;;;4997716;28;20042;-74
2023/07/05 03:19:59;;;;;;;16.55;8.93;;;14.70;99.90;;;;;;4997484;28;20077;-73
2023/07/05 03:22:26;;;;;;;16.17;7.47;;;14.50;99.90;;;;;;4999421;28;20104;-74
2023/07/05 03:24:52;;;;;;;27.58;12.18;;;14.50;99.90;;;;;;4997504;28;20050;-74
2023/07/05 03:27:17;;;;;;;22.00;11.07;;;14.50;99.90;;;;;;4999434;28;20573;-74
2023/07/05 03:29:43;;;;;;;21.83;11.20;;;14.50;99.90;;;;;;4999713;28;20052;-73
2023/07/05 03:32:09;;;;;;;24.20;13.05;;;14.30;99.90;;;;;;4998660;28;20141;-73
2023/07/05 03:34:35;;;;;;;16.88;10.02;;;14.20;99.90;;;;;;4998477;28;20057;-73
2023/07/05 03:37:00;;;;;;;18.27;10.93;;;14.40;99.90;;;;;;4997865;28;20053;-73
2023/07/05 03:39:26;;;;;;;20.20;11.90;;;14.20;99.90;;;;;;4996141;28;20962;-74
2023/07/05 03:41:52;;;;;;;20.75;10.98;;;14.40;99.90;;;;;;4995153;28;20041;-73
2023/07/05 03:44:21;;;;;;;20.80;11.00;;;14.10;99.90;;;;;;4996388;28;20046;-73
2023/07/05 03:46:48;;;;;;;14.90;9.38;;;14.40;99.90;;;;;;4996283;28;20512;-72
2023/07/05 03:49:15;;;;;;;19.92;12.38;;;14.10;99.90;;;;;;4978078;28;20276;-72
2023/07/05 03:51:40;;;;;;;21.73;12.57;;;14.30;99.90;;;;;;4996606;28;20140;-74
2023/07/05 03:54:06;;;;;;;22.50;12.57;;;14.30;99.90;;;;;;4995284;28;20544;-74
2023/07/05 03:56:35;;;;;;;23.70;13.93;;;14.20;99.90;;;;;;4995522;28;20076;-73
2023/07/05 03:59:01;;;;;;;27.73;15.88;;;14.00;99.90;;;;;;4994693;28;20053;-73
2023/07/05 04:01:28;;;;;;;25.45;13.98;;;14.00;99.90;;;;;;4995150;28;20129;-77
2023/07/05 04:03:56;;;;;;;17.50;8.77;;;14.00;99.90;;;;;;4994490;28;20045;-74
2023/07/05 04:06:23;;;;;;;20.85;13.45;;;14.20;99.90;;;;;;4995300;28;20053;-74
2023/07/05 04:08:49;;;;;;;27.02;17.77;;;14.10;99.90;;;;;;4995852;28;20255;-71
2023/07/05 04:11:15;;;;;;;27.88;18.00;;;14.30;99.90;;;;;;4978750;28;20042;-71
2023/07/05 04:13:41;;;;;;;28.15;19.58;;;14.10;99.90;;;;;;4995118;28;20401;-73
2023/07/05 04:16:18;;;;;;;29.50;17.45;;;14.00;99.90;;;;;;4996787;28;20046;-73
2023/07/05 04:18:45;;;;;;;33.33;17.98;;;14.00;99.90;;;;;;4999349;28;20123;-74
2023/07/05 04:21:12;;;;;;;26.27;16.67;;;14.30;99.90;;;;;;4997699;28;20050;-71
2023/07/05 04:23:40;;;;;;;21.33;15.20;;;14.10;99.90;;;;;;4999534;28;20508;-74
2023/07/05 04:26:20;;;;;;;27.33;18.52;;;14.20;99.90;;;;;;5002785;28;20072;-73
2023/07/05 04:28:47;;;;;;;19.02;15.23;;;14.20;99.90;;;;;;5005780;28;20621;-72
2023/07/05 04:31:17;;;;;;;23.85;17.80;;;14.20;99.90;;;;;;5002294;28;20080;-73
2023/07/05 04:33:43;;;;;;;28.30;19.65;;;14.10;99.90;;;;;;5001558;28;20050;-73
2023/07/05 04:36:09;;;;;;;26.27;19.42;;;14.10;99.90;;;;;;4997501;28;20053;-73
2023/07/05 04:38:34;;;;;;;21.63;17.10;;;14.10;99.90;;;;;;4998606;28;20056;-73
2023/07/05 04:41:00;;;;;;;21.75;17.05;;;14.50;99.90;;;;;;4995987;28;20525;-75
2023/07/05 04:43:27;;;;;;;19.45;15.55;;;14.40;99.90;;;;;;4999359;28;20573;-73
2023/07/05 04:45:55;;;;;;;23.60;20.20;;;14.20;99.90;;;;;;4999454;28;20049;-71
2023/07/05 04:48:23;;;;;;;22.55;17.08;;;14.20;99.90;;;;;;5002898;28;20045;-72
2023/07/05 04:50:52;;;;;;;21.73;15.80;;;14.50;99.90;;;;;;5011843;28;20041;-73
2023/07/05 04:53:28;;;;;;;20.02;16.33;;;14.20;99.90;;;;;;5012123;28;20377;-73
2023/07/05 04:55:57;;;;;;;21.65;16.58;;;14.30;99.90;;;;;;4996923;28;20092;-71
2023/07/05 04:58:24;;;;;;;19.48;15.10;;;14.40;99.90;;;;;;5007958;28;20650;-72
2023/07/05 05:00:50;;;;;;;21.27;16.38;;;14.50;99.90;;;;;;5003247;28;20125;-74
2023/07/05 05:03:21;;;;;;;19.40;15.25;;;14.70;99.90;;;;;;5002220;28;20092;-74
2023/07/05 05:05:50;;;;;;;19.23;15.70;;;14.90;99.90;;;;;;4999816;28;20149;-72
2023/07/05 05:08:16;;;;;;;18.23;15.63;;;14.90;99.90;;;;;;5016482;28;20046;-73
2023/07/05 05:10:42;;;;;;;21.83;16.00;;;14.90;99.90;;;;;;4999356;28;20389;-73
2023/07/05 05:13:08;;;;;;;21.60;15.93;;;15.00;99.90;;;;;;5000151;28;20041;-73
2023/07/05 05:15:38;;;;;;;16.83;13.95;;;14.90;99.90;;;;;;5000835;28;20104;-72
2023/07/05 05:18:08;;;;;;;14.38;11.52;;;15.10;99.90;;;;;;4999410;28;20081;-74
2023/07/05 05:20:37;;;;;;;15.48;12.38;;;14.70;99.90;;;;;;5001444;28;20042;-72
2023/07/05 05:23:03;;;;;;;13.43;10.27;;;15.00;99.90;;;;;;5000173;28;20045;-72
2023/07/05 05:25:29;;;;;;;15.68;11.60;;;14.80;99.90;;;;;;5000882;28;20069;-74
2023/07/05 05:27:55;;;;;;;14.38;10.50;;;14.60;99.90;;;;;;4999144;28;20085;-75
2023/07/05 05:30:21;;;;;;;11.43;9.45;;;14.70;99.90;;;;;;5000021;28;20088;-73
2023/07/05 05:32:47;;;;;;;14.70;9.43;;;15.00;99.90;;;;;;4998464;28;20293;-73
2023/07/05 05:35:14;;;;;;;11.05;9.35;;;15.10;99.90;;;;;;4998350;28;20050;-74
2023/07/05 05:37:40;;;;;;;7.50;5.88;;;14.70;99.90;;;;;;4996630;28;20100;-74
2023/07/05 05:40:07;;;;;;;6.65;5.97;;;15.10;99.90;;;;;;4963584;28;20083;-74
2023/07/05 05:42:33;;;;;;;8.20;4.38;;;14.70;99.90;;;;;;4996833;28;20129;-74
2023/07/05 05:44:58;;;;;;;7.60;4.35;;;15.00;99.90;;;;;;4996977;28;20388;-75
2023/07/05 05:47:24;;;;;;;6.70;4.68;;;14.60;99.90;;;;;;4996073;28;20636;-75
2023/07/05 05:49:50;;;;;;;6.53;4.30;;;14.80;99.90;;;;;;4997243;28;20493;-75
2023/07/05 05:52:15;;;;;;;8.30;4.22;;;14.40;99.90;;;;;;4979754;28;20129;-72
2023/07/05 05:54:41;;;;;;;7.43;3.70;;;14.50;99.90;;;;;;4996831;28;20060;-74
2023/07/05 05:57:08;;;;;;;5.43;3.50;;;14.60;99.90;;;;;;4978869;28;20437;-73
2023/07/05 05:59:33;;;;;;;3.10;2.50;;;14.60;99.90;;;;;;4996729;28;20042;-74
2023/07/05 06:02:00;;;;;;;6.20;3.10;;;14.70;99.90;;;;;;4996622;28;20568;-74
2023/07/05 06:04:27;;;;;;;3.80;2.70;;;14.70;99.90;;;;;;4997141;28;20041;-75
2023/07/05 06:06:52;;;;;;;3.92;2.70;;;15.10;99.90;;;;;;4997013;28;20553;-76
2023/07/05 06:09:18;;;;;;;3.97;2.85;;;15.10;99.90;;;;;;4995679;28;20132;-73
2023/07/05 06:11:44;;;;;;;4.63;2.80;;;15.30;99.90;;;;;;4997831;28;20030;-75
2023/07/05 06:14:09;;;;;;;5.40;3.05;;;15.30;99.90;;;;;;4997251;28;20496;-74
2023/07/05 06:16:35;;;;;;;5.35;3.63;;;15.30;99.90;;;;;;4999543;28;20053;-73
2023/07/05 06:19:01;;;;;;;4.53;2.92;;;15.50;99.90;;;;;;4998307;28;20054;-74
2023/07/05 06:21:27;;;;;;;4.53;3.08;;;15.50;99.90;;;;;;4998298;28;20164;-76
2023/07/05 06:23:53;;;;;;;3.92;2.85;;;15.90;99.90;;;;;;4981219;28;20046;-74
2023/07/05 06:26:19;;;;;;;6.55;2.88;;;15.90;99.90;;;;;;4998890;28;20537;-74
2023/07/05 06:28:46;;;;;;;4.32;2.58;;;16.00;99.90;;;;;;4996465;28;20448;-73
2023/07/05 06:31:12;;;;;;;3.22;2.55;;;16.30;99.90;;;;;;4979999;28;20050;-75
2023/07/05 06:33:39;;;;;;;4.80;2.53;;;16.20;99.90;;;;;;4995842;28;20588;-75
2023/07/05 06:36:06;;;;;;;3.20;2.50;;;16.20;51.80;;;;;;4996313;28;20100;-72
2023/07/05 06:38:32;;;;;;;5.57;2.42;;;16.30;99.90;;;;;;4995062;28;20563;-72
2023/07/05 06:40:58;;;;;;;4.35;1.98;;;16.40;99.90;;;;;;4997020;28;20050;-74
2023/07/05 06:43:25;;;;;;;4.97;2.58;;;16.50;99.90;;;;;;4996799;28;20492;-77
2023/07/05 06:45:52;;;;;;;4.30;1.83;;;16.50;99.90;;;;;;4998110;28;20050;-73
2023/07/05 06:48:18;;;;;;;3.75;2.10;;;16.40;1.00;;;;;;4998381;28;20045;-74
2023/07/05 06:50:48;;;;;;;2.95;2.00;;;16.20;99.90;;;;;;4996615;28;20119;-74
2023/07/05 06:53:14;;;;;;;5.00;2.42;;;16.10;99.90;;;;;;4980288;28;20060;-74
2023/07/05 06:55:40;;;;;;;3.92;2.33;;;16.10;99.90;;;;;;4997655;28;20073;-73
2023/07/05 06:58:06;;;;;;;4.20;2.47;;;16.30;99.90;;;;;;4997675;28;20041;-73
2023/07/05 07:00:32;;;;;;;5.93;2.10;;;16.30;99.90;;;;;;4996633;28;20124;-74
2023/07/05 07:02:57;;;;;;;3.90;1.75;;;16.20;99.90;;;;;;4997682;28;20077;-75
2023/07/05 07:05:23;;;;;;;4.40;2.38;;;16.10;1.00;;;;;;4980411;28;20804;-73
2023/07/05 07:07:51;;;;;;;3.25;2.10;;;16.20;93.40;;;;;;4980170;28;20490;-73
2023/07/05 07:10:17;;;;;;;4.78;1.90;;;16.10;1.00;;;;;;4998007;28;20335;-73
2023/07/05 07:12:43;;;;;;;3.67;2.03;;;15.90;99.90;;;;;;4997717;28;20968;-74
2023/07/05 07:15:09;;;;;;;4.28;2.28;;;15.80;99.90;;;;;;4997605;28;20129;-73
2023/07/05 07:17:34;;;;;;;3.45;1.70;;;15.70;1.00;;;;;;4997889;28;20038;-73
2023/07/05 07:20:00;;;;;;;4.05;2.30;;;15.90;1.00;;;;;;4997431;28;20064;-73
2023/07/05 07:22:26;;;;;;;5.53;1.98;;;16.00;65.50;;;;;;4997232;28;20084;-73
2023/07/05 07:24:52;;;;;;;3.78;2.10;;;16.30;1.00;;;;;;4997288;28;20050;-74
2023/07/05 07:27:18;;;;;;;3.30;1.90;;;16.50;99.90;;;;;;4997223;28;20614;-72
2023/07/05 07:29:44;;;;;;;4.13;2.30;;;16.30;99.90;;;;;;4997619;28;20378;-73
2023/07/05 07:32:10;;;;;;;5.28;1.85;;;16.50;99.90;;;;;;4981409;28;20049;-73
2023/07/05 07:34:36;;;;;;;3.97;2.05;;;16.50;99.90;;;;;;4997346;28;20053;-76
2023/07/05 07:37:02;;;;;;;6.82;2.13;;;16.40;99.90;;;;;;4997627;28;20129;-72
2023/07/05 07:39:31;;;;;;;6.00;2.47;;;16.40;99.90;;;;;;4996090;28;20041;-72
2023/07/05 07:41:57;;;;;;;4.05;2.53;;;16.40;99.90;;;;;;5011439;28;20042;-74
2023/07/05 07:44:23;;;;;;;4.18;2.15;;;16.40;99.90;;;;;;4998455;28;20096;-75
2023/07/05 07:46:48;;;;;;;4.32;1.88;;;16.60;99.90;;;;;;4999595;28;20042;-76
2023/07/05 07:49:14;;;;;;;7.30;2.33;;;16.70;99.90;;;;;;4980967;28;20117;-74
2023/07/05 07:51:44;;;;;;;3.30;1.70;;;16.70;99.90;;;;;;4993706;28;20033;-75
2023/07/05 07:54:26;;;;;;;4.57;2.10;;;16.60;99.90;;;;;;4994620;28;20559;-72
2023/07/05 07:56:54;;;;;;;3.67;1.52;;;16.70;99.90;;;;;;4993690;28;20050;-75
2023/07/05 07:59:21;;;;;;;3.13;1.65;;;16.90;99.90;;;;;;4995330;28;20046;-74
2023/07/05 08:01:47;;;;;;;4.25;1.65;;;17.00;99.90;;;;;;4995059;28;20173;-74
2023/07/05 08:04:14;;;;;;;4.55;1.00;;;16.90;99.90;;;;;;4993645;28;20050;-73
2023/07/05 08:06:46;;;;;;;1.85;1.40;;;16.60;74.30;;;;;;4994020;28;20042;-72
2023/07/05 08:09:21;;;;;;;5.17;2.00;;;16.10;99.90;;;;;;4997061;28;20048;-73
2023/07/05 08:11:47;;;;;;;3.10;1.40;;;15.80;99.90;;;;;;4997467;28;20088;-73
2023/07/05 08:14:13;;;;;;;4.38;1.70;;;15.60;1.00;;;;;;4996104;28;20046;-72
2023/07/05 08:16:40;;;;;;;4.07;1.52;;;15.60;1.00;;;;;;4994507;28;20045;-74
2023/07/05 08:19:07;;;;;;;3.45;1.75;;;15.50;99.90;;;;;;4994117;28;20037;-72
2023/07/05 08:21:32;;;;;;;4.22;2.67;;;15.20;1.00;;;;;;4993102;28;20077;-72
2023/07/05 08:23:59;;;;;;;3.28;1.50;;;14.70;99.90;;;;;;4993381;28;21159;-74
2023/07/05 08:26:24;;;;;;;2.70;0.40;;;14.10;99.90;;;;;;4992006;28;20062;-74
2023/07/05 08:28:50;;;;;;;3.28;0.20;;;13.10;99.90;;;;;;4993140;28;20458;-73
2023/07/05 08:31:16;;;;;;;0.75;0.20;;;12.40;99.90;;;;;;4991666;28;20100;-74
2023/07/05 08:33:43;;;;;;;1.58;0.20;;;12.10;99.90;;;;;;4993554;28;20501;-72
2023/07/05 08:36:12;;;;;;;1.80;0.28;;;12.10;1.00;;;;;;4991310;28;20065;-72
2023/07/05 08:38:51;;;;;;;1.40;0.40;;;12.20;18.30;;;;;;4994070;28;20757;-71
2023/07/05 08:41:20;;;;;;;1.20;0.25;;;12.30;99.90;;;;;;4992879;28;20137;-70
2023/07/05 08:44:38;;;;;;;0.80;0.20;;;12.40;99.90;;;;;;4991858;28;20344;-72
2023/07/05 08:47:21;;;;;;;0.55;0.20;;;12.40;59.20;;;;;;4988266;28;20434;-71
2023/07/05 08:50:16;;;;;;;1.25;0.28;;;12.30;93.10;;;;;;4976153;28;20113;-73
2023/07/05 08:52:45;;;;;;;1.60;0.20;;;12.30;90.90;;;;;;4990164;28;20434;-73
2023/07/05 08:55:29;;;;;;;2.90;0.20;;;12.30;99.90;;;;;;4991748;28;20054;-73
2023/07/05 08:57:57;;;;;;;4.22;0.20;;;12.20;58.80;;;;;;4991978;28;20068;-75
2023/07/05 09:00:52;;;;;;;1.45;0.20;;;12.10;55.20;;;;;;4991922;28;20084;-73
2023/07/05 09:03:20;;;;;;;0.47;0.20;;;11.80;99.90;;;;;;4993641;28;20057;-73
2023/07/05 09:05:49;;;;;;;0.65;0.10;;;11.80;99.90;;;;;;4993544;28;20034;-74
2023/07/05 09:08:18;;;;;;;0.93;0.20;;;11.80;99.90;;;;;;4975292;28;20053;-72
2023/07/05 09:11:04;;;;;;;0.55;0.10;;;11.70;99.90;;;;;;4994497;28;20350;-72
2023/07/05 09:13:48;;;;;;;1.13;0.20;;;11.80;99.90;;;;;;4993661;28;20321;-72
2023/07/05 09:16:37;;;;;;;3.42;0.30;;;11.80;99.90;;;;;;4994872;28;20481;-72
2023/07/05 09:19:36;;;;;;;2.13;0.20;;;11.90;99.90;;;;;;4994273;28;20145;-75
2023/07/05 09:22:06;;;;;;;2.63;0.20;;;12.00;99.90;;;;;;4992456;28;20046;-73
2023/07/05 09:24:41;;;;;;;1.23;0.20;;;12.00;99.90;;;;;;4992110;28;20712;-71
2023/07/05 09:27:35;;;;;;;2.05;0.20;;;12.00;99.90;;;;;;4978028;28;20552;-73
2023/07/05 09:30:06;;;;;;;;;;;11.80;99.90;;;;;;4996202;28;20089;-73
2023/07/05 09:32:39;;;;;;;0.85;0.30;;;11.80;99.90;;;;;;4998160;28;20194;-72
2023/07/05 09:35:34;;;;;;;2.92;0.35;;;11.90;99.90;;;;;;4996912;28;20069;-72
2023/07/05 09:38:00;;;;;;;0.98;0.32;;;11.80;99.90;;;;;;5001957;28;20050;-71
2023/07/05 09:40:30;;;;;;;1.27;0.20;;;11.80;99.90;;;;;;5003255;28;20038;-72
2023/07/05 09:43:06;;;;;;;1.58;0.40;;;11.90;99.90;;;;;;4999466;28;20054;-73
2023/07/05 09:45:32;;;;;;;1.30;0.40;;;11.90;99.90;;;;;;5000502;28;20317;-74
2023/07/05 09:48:00;;;;;;;3.45;0.40;;;12.00;99.90;;;;;;4983141;28;20050;-74
2023/07/05 09:50:27;;;;;;;3.30;0.50;;;12.10;99.90;;;;;;5000524;28;20030;-74
2023/07/05 09:53:15;;;;;;;2.00;0.38;;;12.30;99.90;;;;;;5000670;28;20387;-73
2023/07/05 09:56:27;;;;;;;2.03;0.28;;;12.20;99.90;;;;;;4998620;28;20129;-72
2023/07/05 09:59:04;;;;;;;5.22;0.40;;;12.30;99.90;;;;;;4999432;28;20057;-71
2023/07/05 10:01:31;;;;;;;3.45;0.40;;;12.40;99.90;;;;;;4999500;28;20046;-73
2023/07/05 10:04:02;;;;;;;4.47;0.40;;;12.50;99.90;;;;;;4999214;28;20049;-74
2023/07/05 10:06:28;;;;;;;3.33;0.40;;;12.50;99.90;;;;;;4999522;28;20042;-74
2023/07/05 10:08:56;;;;;;;2.05;0.30;;;12.60;99.90;;;;;;4981417;28;20107;-74
2023/07/05 10:11:24;;;;;;;3.50;0.60;;;12.60;99.90;;;;;;4999066;28;20127;-73
2023/07/05 10:14:05;;;;;;;4.28;0.52;;;12.50;99.90;;;;;;4999368;28;20057;-72
2023/07/05 10:16:49;;;;;;;8.25;0.70;;;12.70;99.90;;;;;;4981857;28;20141;-75
2023/07/05 10:19:51;;;;;;;6.38;0.50;;;12.80;99.90;;;;;;4997768;28;20037;-76
2023/07/05 10:22:33;;;;;;;5.82;0.30;;;13.10;99.90;;;;;;4999485;28;20041;-73
2023/07/05 10:25:13;;;;;;;4.53;0.10;;;13.30;99.90;;;;;;4999127;28;20550;-72
2023/07/05 10:27:43;;;;;;;2.30;0.10;;;13.50;1.00;;;;;;4998103;28;20046;-72
2023/07/05 10:30:15;;;;;;;2.90;0.08;;;13.60;99.90;;;;;;4997641;28;20054;-74
2023/07/05 10:32:42;;;;;;;2.67;0.10;;;13.70;99.90;;;;;;4997693;28;20042;-74
2023/07/05 10:35:20;;;;;;;5.80;0.38;;;13.80;99.90;;;;;;4996627;28;20113;-74
2023/07/05 10:37:46;;;;;;;0.47;0.00;;;13.80;99.90;;;;;;4997672;28;20053;-74
2023/07/05 10:40:12;;;;;;;2.92;0.10;;;13.90;99.90;;;;;;4997324;28;20540;-74
2023/07/05 10:42:45;;;;;;;1.83;0.10;;;14.00;99.90;;;;;;4997464;28;20044;-74
2023/07/05 10:45:14;;;;;;;1.95;0.00;;;14.00;99.90;;;;;;4998632;28;20121;-75
2023/07/05 10:47:41;;;;;;;2.38;0.10;;;14.00;99.90;;;;;;4996740;28;20056;-74
2023/07/05 10:50:07;;;;;;;1.83;0.17;;;14.10;99.90;;;;;;4997740;28;20081;-76
2023/07/05 10:52:40;;;;;;;0.63;0.00;;;14.10;99.90;;;;;;4997458;28;20768;-74
2023/07/05 10:55:19;;;;;;;1.45;0.08;;;14.30;99.90;;;;;;4998096;28;20050;-75
2023/07/05 10:57:56;;;;;;;1.80;0.03;;;14.60;99.40;;;;;;4997555;28;20042;-74
2023/07/05 11:00:39;;;;;;;2.13;0.10;;;15.00;20.70;;;;;;4999217;28;20358;-73
2023/07/05 11:03:16;;;;;;;3.40;0.10;;;15.50;1.00;;;;;;4998186;28;20125;-75
2023/07/05 11:05:46;;;;;;;1.75;0.10;;;15.70;1.00;;;;;;4997812;28;20045;-72
2023/07/05 11:08:39;;;;;;;1.55;0.10;;;15.80;99.90;;;;;;4999151;28;20656;-73
2023/07/05 11:11:23;;;;;;;3.85;0.10;;;16.00;99.90;;;;;;4995683;28;20486;-77
2023/07/05 11:13:51;;;;;;;1.73;0.10;;;16.20;99.90;;;;;;4997800;28;20042;-75
2023/07/05 11:16:19;;;;;;;2.25;0.20;;;16.10;99.90;;;;;;4998007;28;20112;-72
2023/07/05 11:18:46;;;;;;;4.55;0.10;;;16.20;99.90;;;;;;4980439;28;20117;-74
2023/07/05 11:21:50;;;;;;;3.55;0.20;;;16.40;99.90;;;;;;4995365;28;20050;-74
2023/07/05 11:24:38;;;;;;;1.50;0.05;;;16.10;99.90;;;;;;4995659;28;20104;-74
2023/07/05 11:27:23;;;;;;;1.45;0.10;;;16.00;99.90;;;;;;4992272;28;20331;-74
2023/07/05 11:29:51;;;;;;;6.80;0.13;;;16.10;99.90;;;;;;4995091;28;20046;-73
2023/07/05 11:32:41;;;;;;;1.25;0.10;;;16.10;99.90;;;;;;4994055;28;20045;-73
2023/07/05 11:35:07;;;;;;;2.05;0.20;;;16.10;99.90;;;;;;4987928;28;20460;-75
2023/07/05 11:37:40;;;;;;;2.20;0.15;;;16.30;99.90;;;;;;4995198;28;20096;-73
2023/07/05 11:40:46;;;;;;;1.80;0.10;;;16.50;99.90;;;;;;4994561;28;20092;-74
2023/07/05 11:43:26;;;;;;;1.23;0.10;;;16.50;99.90;;;;;;4993470;28;20494;-77
2023/07/05 11:45:52;;;;;;;0.75;0.10;;;16.50;99.90;;;;;;4994269;28;20046;-73
2023/07/05 11:48:43;;;;;;;1.67;0.10;;;16.70;99.90;;;;;;4994133;28;20656;-74
2023/07/05 11:51:29;;;;;;;1.33;0.20;;;16.90;19.40;;;;;;4976497;28;20085;-74
2023/07/05 11:53:57;;;;;;;2.90;0.20;;;17.20;1.00;;;;;;4992726;28;20120;-74
2023/07/05 11:56:25;;;;;;;1.95;0.10;;;17.30;1.00;;;;;;4994738;28;20646;-74
2023/07/05 11:58:53;;;;;;;0.88;0.20;;;17.20;18.30;;;;;;4994575;28;20049;-76
2023/07/05 12:01:28;;;;;;;1.80;0.20;;;17.10;1.00;;;;;;4995235;28;20033;-73
2023/07/05 12:03:59;;;;;;;1.75;0.20;;;17.00;99.90;;;;;;4993528;28;20353;-75
2023/07/05 12:06:37;;;;;;;2.65;0.32;;;17.10;99.90;;;;;;4993246;28;20549;-74
2023/07/05 12:09:06;;;;;;;2.15;0.20;;;17.30;65.70;;;;;;4995287;28;20477;-75
2023/07/05 12:11:38;;;;;;;1.80;0.20;;;17.80;99.90;;;;;;4994743;28;20038;-75
2023/07/05 12:14:15;;;;;;;2.33;0.30;;;18.40;1.00;;;;;;4994292;28;20038;-74
2023/07/05 12:16:43;;;;;;;2.15;0.22;;;18.60;1.00;;;;;;4993541;28;20393;-75
2023/07/05 12:19:16;;;;;;;1.50;0.20;;;18.30;1.00;;;;;;4995927;28;20041;-74
2023/07/05 12:21:52;;;;;;;0.98;0.20;;;17.90;1.90;;;;;;4994519;28;20080;-75
2023/07/05 12:24:18;;;;;;;2.13;0.30;;;17.70;99.90;;;;;;4995464;28;20596;-72
2023/07/05 12:26:45;;;;;;;7.18;0.90;;;17.40;1.00;;;;;;4994938;28;20125;-74
2023/07/05 12:29:29;;;;;;;4.63;0.50;;;17.20;1.00;;;;;;4994044;28;20089;-74
2023/07/05 12:32:07;;;;;;;3.95;0.40;;;17.00;62.30;;;;;;4995582;28;20045;-73
2023/07/05 12:34:33;;;;;;;4.03;0.40;;;16.80;99.90;;;;;;4994349;28;20049;-73
2023/07/05 12:36:59;;;;;;;5.95;0.38;;;16.70;99.90;;;;;;4994698;28;20108;-73
2023/07/05 12:39:25;;;;;;;5.25;0.40;;;16.50;99.90;;;;;;4996365;28;20072;-74
2023/07/05 12:42:03;;;;;;;5.93;0.68;;;16.30;99.90;;;;;;4996907;28;20490;-76
2023/07/05 12:44:30;;;;;;;8.18;1.10;;;15.60;1.00;;;;;;4997175;28;20050;-74
2023/07/05 12:47:11;;;;;;;10.55;0.88;;;14.70;99.90;;;;;;4994950;28;20046;-74
2023/07/05 12:49:37;;;;;;;9.63;1.08;;;14.20;1.00;;;;;;4996279;28;20038;-75
2023/07/05 12:52:03;;;;;;;6.22;0.73;;;14.10;93.70;;;;;;4978069;28;20052;-75
2023/07/05 12:54:29;;;;;;;3.40;0.55;;;14.00;99.90;;;;;;4961103;28;20360;-72
2023/07/05 12:56:57;;;;;;;4.45;0.40;;;13.90;99.90;;;;;;4994271;28;20136;-73
2023/07/05 12:59:36;;;;;;;4.57;0.40;;;13.70;99.90;;;;;;4993219;28;20042;-74
2023/07/05 13:02:09;;;;;;;4.50;0.45;;;13.70;99.90;;;;;;4994361;28;20046;-74